createdAt,value
2018-09-04T00:00:45.538Z,17.87
2018-09-04T00:03:14.062Z,17.89
2018-09-04T00:05:42.577Z,17.97
2018-09-04T00:08:11.086Z,17.94
2018-09-04T00:10:39.613Z,17.96
2018-09-04T00:13:08.133Z,17.97
2018-09-04T00:15:36.648Z,18.01
2018-09-04T00:18:05.471Z,18.12
2018-09-04T00:20:34.002Z,18.02
2018-09-04T00:23:02.526Z,18.05
2018-09-04T00:25:31.018Z,18.16
2018-09-04T00:27:59.534Z,18.11
2018-09-04T00:30:28.025Z,17.99
2018-09-04T00:32:56.549Z,18.10
2018-09-04T00:35:25.042Z,18.09
2018-09-04T00:37:53.545Z,18.13
2018-09-04T00:40:22.072Z,17.97
2018-09-04T00:42:50.594Z,17.85
2018-09-04T00:45:19.174Z,17.95
2018-09-04T00:47:47.705Z,18.05
2018-09-04T00:50:16.249Z,18.05
2018-09-04T00:52:44.785Z,17.92
2018-09-04T00:55:13.282Z,17.89
2018-09-04T00:57:41.823Z,17.85
2018-09-04T01:00:10.398Z,17.91
2018-09-04T01:02:38.918Z,17.97
2018-09-04T01:05:07.518Z,18.06
2018-09-04T01:07:36.038Z,18.03
2018-09-04T01:10:04.622Z,18.03
2018-09-04T01:12:33.388Z,18.05
2018-09-04T01:15:01.885Z,18.08
2018-09-04T01:17:30.418Z,18.12
2018-09-04T01:19:58.934Z,18.18
2018-09-04T01:22:27.474Z,18.25
2018-09-04T01:24:56.038Z,18.30
2018-09-04T01:27:24.558Z,18.25
2018-09-04T01:29:53.083Z,18.22
2018-09-04T01:32:21.569Z,18.16
2018-09-04T01:34:50.102Z,18.11
2018-09-04T01:37:18.610Z,18.05
2018-09-04T01:39:47.147Z,17.97
2018-09-04T01:42:15.729Z,17.90
2018-09-04T01:44:44.365Z,17.78
2018-09-04T01:47:12.914Z,17.82
2018-09-04T01:49:41.425Z,17.86
2018-09-04T01:52:09.925Z,17.88
2018-09-04T01:54:38.470Z,18.01
2018-09-04T01:57:06.983Z,17.90
2018-09-04T01:59:35.520Z,17.88
2018-09-04T02:02:04.086Z,17.91
2018-09-04T02:04:32.609Z,17.93
2018-09-04T02:07:01.118Z,17.88
2018-09-04T02:09:29.730Z,17.78
2018-09-04T02:11:58.229Z,17.69
2018-09-04T02:14:26.762Z,17.65
2018-09-04T02:16:55.259Z,17.54
2018-09-04T02:19:23.783Z,17.53
2018-09-04T02:21:52.293Z,17.39
2018-09-04T02:24:20.834Z,17.46
2018-09-04T02:26:49.381Z,17.48
2018-09-04T02:29:17.904Z,17.48
2018-09-04T02:31:46.410Z,17.38
2018-09-04T02:34:14.934Z,17.34
2018-09-04T02:36:43.417Z,17.43
2018-09-04T02:39:12.889Z,17.36
2018-09-04T02:41:41.469Z,17.35
2018-09-04T02:44:10.050Z,17.31
2018-09-04T02:46:38.888Z,17.31
2018-09-04T02:49:08.133Z,17.32
2018-09-04T02:51:37.101Z,17.35
2018-09-04T02:54:05.815Z,17.28
2018-09-04T02:56:34.314Z,17.33
2018-09-04T02:59:02.849Z,17.32
2018-09-04T03:01:31.418Z,17.24
2018-09-04T03:03:59.957Z,17.30
2018-09-04T03:06:28.463Z,17.33
2018-09-04T03:08:56.986Z,17.42
2018-09-04T03:11:25.494Z,17.40
2018-09-04T03:13:54.042Z,17.39
2018-09-04T03:16:22.535Z,17.36
2018-09-04T03:18:51.080Z,17.33
2018-09-04T03:21:19.585Z,17.30
2018-09-04T03:23:48.097Z,17.28
2018-09-04T03:26:16.625Z,17.26
2018-09-04T03:28:45.131Z,17.28
2018-09-04T03:31:14.599Z,17.33
2018-09-04T03:33:43.170Z,17.28
2018-09-04T03:36:11.719Z,17.33
2018-09-04T03:38:40.221Z,17.32
2018-09-04T03:41:08.743Z,17.27
2018-09-04T03:43:37.246Z,17.36
2018-09-04T03:46:06.109Z,17.42
2018-09-04T03:48:34.662Z,17.36
2018-09-04T03:51:03.229Z,17.34
2018-09-04T03:53:31.759Z,17.37
2018-09-04T03:56:00.273Z,17.51
2018-09-04T03:58:28.776Z,17.48
2018-09-04T04:00:57.318Z,17.39
2018-09-04T04:03:25.821Z,17.51
2018-09-04T04:05:54.345Z,17.51
2018-09-04T04:08:22.834Z,17.48
2018-09-04T04:10:51.387Z,17.47
2018-09-04T04:13:19.922Z,17.52
2018-09-04T04:15:48.499Z,17.59
2018-09-04T04:18:16.994Z,17.56
2018-09-04T04:20:50.029Z,17.52
2018-09-04T04:23:18.525Z,17.57
2018-09-04T04:25:47.114Z,17.52
2018-09-04T04:28:15.638Z,17.58
2018-09-04T04:30:44.174Z,17.59
2018-09-04T04:33:12.786Z,17.56
2018-09-04T04:35:41.613Z,17.65
2018-09-04T04:38:10.401Z,17.69
2018-09-04T04:40:39.222Z,17.69
2018-09-04T04:43:08.611Z,17.75
2018-09-04T04:45:37.155Z,17.76
2018-09-04T04:48:05.704Z,17.74
2018-09-04T04:50:34.242Z,17.73
2018-09-04T04:53:02.764Z,17.67
2018-09-04T04:55:31.474Z,17.63
2018-09-04T04:58:00.067Z,17.63
2018-09-04T05:00:28.632Z,17.57
2018-09-04T05:02:57.145Z,17.48
2018-09-04T05:05:25.685Z,17.57
2018-09-04T05:07:54.195Z,17.51
2018-09-04T05:10:22.730Z,17.49
2018-09-04T05:12:51.283Z,17.42
2018-09-04T05:15:19.817Z,17.43
2018-09-04T05:17:48.315Z,17.48
2018-09-04T05:20:20.505Z,17.63
2018-09-04T05:22:49.053Z,17.76
2018-09-04T05:25:17.615Z,17.93
2018-09-04T05:27:46.191Z,18.04
2018-09-04T05:30:14.709Z,18.08
2018-09-04T05:32:49.498Z,18.04
2018-09-04T05:35:18.067Z,18.12
2018-09-04T05:37:46.639Z,18.14
2018-09-04T05:40:15.167Z,18.11
2018-09-04T05:42:52.638Z,17.98
2018-09-04T05:45:22.482Z,18.10
2018-09-04T05:47:55.147Z,18.01
2018-09-04T05:50:23.737Z,18.00
2018-09-04T05:52:52.535Z,17.91
2018-09-04T05:55:21.132Z,17.87
2018-09-04T05:57:49.648Z,17.93
2018-09-04T06:00:20.251Z,18.02
2018-09-04T06:02:53.196Z,18.08
2018-09-04T06:05:21.941Z,18.05
2018-09-04T06:07:50.522Z,18.07
2018-09-04T06:10:19.083Z,17.93
2018-09-04T06:12:47.704Z,17.81
2018-09-04T06:15:16.922Z,17.75
2018-09-04T06:17:45.519Z,17.76
2018-09-04T06:20:20.036Z,17.89
2018-09-04T06:22:48.622Z,17.90
2018-09-04T06:25:17.469Z,18.08
2018-09-04T06:27:46.026Z,18.36
2018-09-04T06:30:14.967Z,18.59
2018-09-04T06:32:43.625Z,18.70
2018-09-04T06:35:12.134Z,18.90
2018-09-04T06:37:40.669Z,19.15
2018-09-04T06:40:09.217Z,19.28
2018-09-04T06:42:37.770Z,19.49
2018-09-04T06:45:06.866Z,19.65
2018-09-04T06:47:35.406Z,19.86
2018-09-04T06:50:04.081Z,20.15
2018-09-04T06:52:32.625Z,20.35
2018-09-04T06:55:01.114Z,20.66
2018-09-04T06:57:29.634Z,20.59
2018-09-04T06:59:58.117Z,20.59
2018-09-04T07:02:26.650Z,21.12
2018-09-04T07:04:55.130Z,21.18
2018-09-04T07:07:23.678Z,21.27
2018-09-04T07:09:52.166Z,21.38
2018-09-04T07:12:20.711Z,21.67
2018-09-04T07:14:49.277Z,22.89
2018-09-04T07:17:17.783Z,22.66
2018-09-04T07:19:46.278Z,22.40
2018-09-04T07:22:14.790Z,23.52
2018-09-04T07:24:43.282Z,24.56
2018-09-04T07:27:11.806Z,25.45
2018-09-04T07:29:40.311Z,26.69
2018-09-04T07:32:08.827Z,25.77
2018-09-04T07:34:37.326Z,24.65
2018-09-04T07:37:06.321Z,23.78
2018-09-04T07:39:34.839Z,22.63
2018-09-04T07:42:03.511Z,22.70
2018-09-04T07:44:31.924Z,22.46
2018-09-04T07:47:00.435Z,22.43
2018-09-04T07:49:28.993Z,22.68
2018-09-04T07:51:57.477Z,22.67
2018-09-04T07:54:25.997Z,22.44
2018-09-04T07:56:54.571Z,22.30
2018-09-04T07:59:23.075Z,22.03
2018-09-04T08:01:51.598Z,22.06
2018-09-04T08:04:20.265Z,22.01
2018-09-04T08:06:48.772Z,21.96
2018-09-04T08:09:17.290Z,21.79
2018-09-04T08:11:45.830Z,21.85
2018-09-04T08:14:14.403Z,21.96
2018-09-04T08:16:42.898Z,22.08
2018-09-04T08:19:11.463Z,22.09
2018-09-04T08:21:39.946Z,22.04
2018-09-04T08:24:09.337Z,21.99
2018-09-04T08:26:38.051Z,22.12
2018-09-04T08:29:06.618Z,22.05
2018-09-04T08:31:35.460Z,22.12
2018-09-04T08:34:04.182Z,22.28
2018-09-04T08:36:33.193Z,22.65
2018-09-04T08:39:01.719Z,23.44
2018-09-04T08:41:30.300Z,24.66
2018-09-04T08:43:58.846Z,25.50
2018-09-04T08:46:27.414Z,25.83
2018-09-04T08:48:55.959Z,25.70
2018-09-04T08:51:24.488Z,24.80
2018-09-04T08:53:53.010Z,24.55
2018-09-04T08:56:21.535Z,24.40
2018-09-04T08:58:50.162Z,24.62
2018-09-04T09:01:24.689Z,24.79
2018-09-04T09:03:54.287Z,24.94
2018-09-04T09:06:22.765Z,25.04
2018-09-04T09:08:51.336Z,24.77
2018-09-04T09:11:19.982Z,24.96
2018-09-04T09:13:48.560Z,25.03
2018-09-04T09:16:17.438Z,24.82
2018-09-04T09:18:46.161Z,24.80
2018-09-04T09:21:16.003Z,25.29
2018-09-04T09:23:44.628Z,25.78
2018-09-04T09:26:13.216Z,27.15
2018-09-04T09:28:41.995Z,28.53
2018-09-04T09:31:10.627Z,30.18
2018-09-04T09:33:40.840Z,30.77
2018-09-04T09:36:12.559Z,29.59
2018-09-04T09:38:43.032Z,28.85
2018-09-04T09:41:11.598Z,27.29
2018-09-04T09:43:40.152Z,26.39
2018-09-04T09:46:09.316Z,26.01
2018-09-04T09:48:41.350Z,25.88
2018-09-04T09:51:10.755Z,25.62
2018-09-04T09:53:44.229Z,25.47
2018-09-04T09:56:12.879Z,25.12
2018-09-04T09:58:41.745Z,24.67
2018-09-04T10:01:15.546Z,24.28
2018-09-04T10:03:49.300Z,24.45
2018-09-04T10:06:19.114Z,24.53
2018-09-04T10:08:47.697Z,24.20
2018-09-04T10:11:33.990Z,24.76
2018-09-04T10:14:02.583Z,25.09
2018-09-04T10:16:31.078Z,26.52
2018-09-04T10:18:59.614Z,28.18
2018-09-04T10:21:28.158Z,30.55
2018-09-04T10:23:56.699Z,31.86
2018-09-04T10:26:25.331Z,32.30
2018-09-04T10:28:53.847Z,33.58
2018-09-04T10:31:42.203Z,33.58
2018-09-04T10:34:19.515Z,31.85
2018-09-04T10:36:48.052Z,30.89
2018-09-04T10:39:38.266Z,30.65
2018-09-04T10:42:07.984Z,29.66
2018-09-04T10:44:36.506Z,29.70
2018-09-04T10:47:05.014Z,28.89
2018-09-04T10:49:50.218Z,28.55
2018-09-04T10:52:19.709Z,27.98
2018-09-04T10:54:48.287Z,27.09
2018-09-04T10:57:16.784Z,26.69
2018-09-04T10:59:45.357Z,26.74
2018-09-04T11:02:15.151Z,26.46
2018-09-04T11:04:43.714Z,27.12
2018-09-04T11:07:12.261Z,27.08
2018-09-04T11:09:40.928Z,27.26
2018-09-04T11:12:09.507Z,27.47
2018-09-04T11:14:45.816Z,27.72
2018-09-04T11:17:19.171Z,27.33
2018-09-04T11:19:53.671Z,27.19
2018-09-04T11:22:22.224Z,27.68
2018-09-04T11:24:50.874Z,28.63
2018-09-04T11:27:19.388Z,29.27
2018-09-04T11:29:53.147Z,29.56
2018-09-04T11:32:27.282Z,28.42
2018-09-04T11:34:56.378Z,28.41
2018-09-04T11:37:24.893Z,28.45
2018-09-04T11:39:53.876Z,28.51
2018-09-04T11:42:24.353Z,28.82
2018-09-04T11:44:52.970Z,28.66
2018-09-04T11:47:31.202Z,28.28
2018-09-04T11:49:59.826Z,27.47
2018-09-04T11:52:28.339Z,27.02
2018-09-04T11:54:56.927Z,25.92
2018-09-04T11:57:25.427Z,25.36
2018-09-04T11:59:54.323Z,25.70
2018-09-04T12:02:40.386Z,25.58
2018-09-04T12:05:10.826Z,25.64
2018-09-04T12:07:39.409Z,25.90
2018-09-04T12:10:08.322Z,26.25
2018-09-04T12:12:37.272Z,26.58
2018-09-04T12:15:05.929Z,26.68
2018-09-04T12:17:34.517Z,27.11
2018-09-04T12:20:25.105Z,27.70
2018-09-04T12:22:53.986Z,27.81
2018-09-04T12:25:22.815Z,27.67
2018-09-04T12:27:51.373Z,27.66
2018-09-04T12:30:19.905Z,27.92
2018-09-04T12:32:48.435Z,27.77
2018-09-04T12:35:17.014Z,27.19
2018-09-04T12:37:45.629Z,26.95
2018-09-04T12:40:14.199Z,27.10
2018-09-04T12:42:42.763Z,27.26
2018-09-04T12:45:11.354Z,27.03
2018-09-04T12:47:39.862Z,25.92
2018-09-04T12:50:08.375Z,26.05
2018-09-04T12:52:36.877Z,25.85
2018-09-04T12:55:05.629Z,26.21
2018-09-04T12:57:34.171Z,26.08
2018-09-04T13:00:02.711Z,25.87
2018-09-04T13:02:31.239Z,25.95
2018-09-04T13:04:59.729Z,26.39
2018-09-04T13:07:28.254Z,26.55
2018-09-04T13:09:56.745Z,26.91
2018-09-04T13:12:25.326Z,26.91
2018-09-04T13:14:53.910Z,26.75
2018-09-04T13:17:22.478Z,26.42
2018-09-04T13:19:51.030Z,26.52
2018-09-04T13:22:19.587Z,26.94
2018-09-04T13:24:48.117Z,27.61
2018-09-04T13:27:16.710Z,27.07
2018-09-04T13:29:45.219Z,26.63
2018-09-04T13:32:13.910Z,26.68
2018-09-04T13:34:42.433Z,26.57
2018-09-04T13:37:11.526Z,26.91
2018-09-04T13:39:40.195Z,28.04
2018-09-04T13:42:08.899Z,27.40
2018-09-04T13:44:37.614Z,27.61
2018-09-04T13:47:06.191Z,27.86
2018-09-04T13:49:34.851Z,27.80
2018-09-04T13:52:03.205Z,28.07
2018-09-04T13:54:31.743Z,28.53
2018-09-04T13:57:00.299Z,28.28
2018-09-04T13:59:28.814Z,28.00
2018-09-04T14:01:57.328Z,28.39
2018-09-04T14:04:25.962Z,29.16
2018-09-04T14:06:54.410Z,29.54
2018-09-04T14:09:22.929Z,29.30
2018-09-04T14:11:51.455Z,28.89
2018-09-04T14:14:20.955Z,28.47
2018-09-04T14:16:49.521Z,27.98
2018-09-04T14:19:18.135Z,27.60
2018-09-04T14:21:46.600Z,27.06
2018-09-04T14:24:15.113Z,26.83
2018-09-04T14:26:43.603Z,27.20
2018-09-04T14:29:53.154Z,27.31
2018-09-04T14:31:40.698Z,27.07
2018-09-04T14:34:09.262Z,27.39
2018-09-04T14:36:38.514Z,27.32
2018-09-04T14:39:07.188Z,27.70
2018-09-04T14:41:35.838Z,28.04
2018-09-04T14:44:04.415Z,28.72
2018-09-04T14:46:33.179Z,28.73
2018-09-04T14:49:01.767Z,28.15
2018-09-04T14:51:30.266Z,27.43
2018-09-04T14:53:58.867Z,27.11
2018-09-04T14:56:27.420Z,27.11
2018-09-04T14:58:55.997Z,26.90
2018-09-04T15:01:24.539Z,27.31
2018-09-04T15:03:53.099Z,26.70
2018-09-04T15:06:21.626Z,26.24
2018-09-04T15:08:50.129Z,25.74
2018-09-04T15:11:18.649Z,25.22
2018-09-04T15:13:47.233Z,25.15
2018-09-04T15:16:15.750Z,25.11
2018-09-04T15:18:46.446Z,25.01
2018-09-04T15:21:15.687Z,25.13
2018-09-04T15:23:44.319Z,24.88
2018-09-04T15:26:12.887Z,24.85
2018-09-04T15:28:42.194Z,24.94
2018-09-04T15:31:10.694Z,25.50
2018-09-04T15:33:39.855Z,26.33
2018-09-04T15:36:08.427Z,27.30
2018-09-04T15:38:37.065Z,27.51
2018-09-04T15:41:05.589Z,27.35
2018-09-04T15:43:34.200Z,26.35
2018-09-04T15:46:02.788Z,25.82
2018-09-04T15:48:31.319Z,25.28
2018-09-04T15:50:59.941Z,24.90
2018-09-04T15:53:28.470Z,24.67
2018-09-04T15:55:56.980Z,24.39
2018-09-04T15:58:25.510Z,24.30
2018-09-04T16:00:54.051Z,24.10
2018-09-04T16:03:22.561Z,24.00
2018-09-04T16:05:51.148Z,23.95
2018-09-04T16:08:19.621Z,24.01
2018-09-04T16:10:48.187Z,24.01
2018-09-04T16:13:16.695Z,24.12
2018-09-04T16:15:45.261Z,24.27
2018-09-04T16:18:13.762Z,24.39
2018-09-04T16:20:42.315Z,24.33
2018-09-04T16:23:10.814Z,24.20
2018-09-04T16:25:39.423Z,24.06
2018-09-04T16:28:07.926Z,23.86
2018-09-04T16:30:36.540Z,23.55
2018-09-04T16:33:05.286Z,23.36
2018-09-04T16:35:33.810Z,23.21
2018-09-04T16:38:02.736Z,23.02
2018-09-04T16:40:31.310Z,22.99
2018-09-04T16:42:59.827Z,22.71
2018-09-04T16:45:34.381Z,22.54
2018-09-04T16:48:02.938Z,22.30
2018-09-04T16:50:31.446Z,22.27
2018-09-04T16:52:59.923Z,22.06
2018-09-04T16:55:28.451Z,22.06
2018-09-04T16:57:57.036Z,21.92
2018-09-04T17:00:25.604Z,21.95
2018-09-04T17:02:54.204Z,21.88
2018-09-04T17:05:22.812Z,21.85
2018-09-04T17:07:51.466Z,21.84
2018-09-04T17:10:20.087Z,21.68
2018-09-04T17:12:48.672Z,21.58
2018-09-04T17:15:17.233Z,21.51
2018-09-04T17:17:45.778Z,21.52
2018-09-04T17:20:14.317Z,21.41
2018-09-04T17:22:42.823Z,21.34
2018-09-04T17:25:11.401Z,21.33
2018-09-04T17:27:39.946Z,21.29
2018-09-04T17:30:08.453Z,21.17
2018-09-04T17:32:36.979Z,21.12
2018-09-04T17:35:05.664Z,21.03
2018-09-04T17:37:34.143Z,21.06
2018-09-04T17:40:02.736Z,21.01
2018-09-04T17:42:31.291Z,20.93
2018-09-04T17:44:59.794Z,20.89
2018-09-04T17:47:28.286Z,20.86
2018-09-04T17:49:56.775Z,20.77
2018-09-04T17:52:25.274Z,20.78
2018-09-04T17:54:54.029Z,20.74
2018-09-04T17:57:22.546Z,20.65
2018-09-04T17:59:51.072Z,20.67
2018-09-04T18:02:19.670Z,20.58
2018-09-04T18:04:48.219Z,20.50
2018-09-04T18:07:16.806Z,20.46
2018-09-04T18:09:45.295Z,20.39
2018-09-04T18:12:13.911Z,20.40
2018-09-04T18:14:42.386Z,20.38
2018-09-04T18:17:10.948Z,20.32
2018-09-04T18:19:39.491Z,20.35
2018-09-04T18:29:42.490Z,19.83
2018-09-04T18:32:11.034Z,19.86
2018-09-04T18:34:39.568Z,19.90
2018-09-04T18:37:08.057Z,19.95
2018-09-04T18:39:36.562Z,19.94
2018-09-04T18:42:05.128Z,19.94
2018-09-04T18:47:26.177Z,19.87
2018-09-04T18:49:54.734Z,19.81
2018-09-04T18:52:23.274Z,19.86
2018-09-04T18:54:51.746Z,19.92
2018-09-04T18:57:20.238Z,19.82
2018-09-04T18:59:48.709Z,19.74
2018-09-04T19:02:17.289Z,19.67
2018-09-04T19:04:45.817Z,19.63
2018-09-04T19:07:14.362Z,19.62
2018-09-04T19:09:42.817Z,19.56
2018-09-04T19:12:11.332Z,19.51
2018-09-04T19:14:39.793Z,19.47
2018-09-04T19:17:08.349Z,19.47
2018-09-04T19:19:36.848Z,19.39
2018-09-04T19:22:05.527Z,19.40
2018-09-04T19:24:34.051Z,19.37
2018-09-04T19:27:02.554Z,19.29
2018-09-04T19:29:31.042Z,19.27
2018-09-04T19:31:59.553Z,19.23
2018-09-04T19:34:28.003Z,19.18
2018-09-04T19:36:56.551Z,19.19
2018-09-04T19:39:25.147Z,19.13
2018-09-04T19:41:53.651Z,18.99
2018-09-04T19:44:22.155Z,18.96
2018-09-04T19:46:50.654Z,18.95
2018-09-04T19:49:19.148Z,18.94
2018-09-04T19:51:47.690Z,18.85
2018-09-04T19:54:16.168Z,18.81
2018-09-04T19:56:44.733Z,18.76
2018-09-04T19:59:13.263Z,18.71
2018-09-04T20:01:42.058Z,18.68
2018-09-04T20:04:11.337Z,18.63
2018-09-04T20:06:39.899Z,18.63
2018-09-04T20:09:08.421Z,18.61
2018-09-04T20:11:36.908Z,18.57
2018-09-04T20:14:05.410Z,18.60
2018-09-04T20:16:33.982Z,18.58
2018-09-04T20:19:02.476Z,18.57
2018-09-04T20:21:30.999Z,18.51
2018-09-04T20:23:59.517Z,18.52
2018-09-04T20:26:27.974Z,18.49
2018-09-04T20:28:56.477Z,18.53
2018-09-04T20:31:24.961Z,18.62
2018-09-04T20:33:53.481Z,18.63
2018-09-04T20:36:21.942Z,18.64
2018-09-04T20:38:50.474Z,18.65
2018-09-04T20:41:19.448Z,18.64
2018-09-04T20:43:48.013Z,18.64
2018-09-04T20:46:17.806Z,18.70
2018-09-04T20:48:46.277Z,18.65
2018-09-04T20:51:14.958Z,18.63
2018-09-04T20:53:43.489Z,18.53
2018-09-04T20:56:11.945Z,18.33
2018-09-04T20:58:51.741Z,18.10
2018-09-04T21:01:31.422Z,18.10
2018-09-04T21:04:11.329Z,18.20
2018-09-04T21:06:49.253Z,18.18
2018-09-04T21:10:53.365Z,18.13
2018-09-04T21:13:21.866Z,18.04
2018-09-04T21:15:50.361Z,18.04
2018-09-04T21:18:19.032Z,18.04
2018-09-04T21:20:47.484Z,18.04
2018-09-04T21:23:16.065Z,17.95
2018-09-04T21:25:44.598Z,17.97
2018-09-04T21:28:13.149Z,17.95
2018-09-04T21:30:41.688Z,17.90
2018-09-04T21:33:10.217Z,17.88
2018-09-04T21:35:38.734Z,17.92
2018-09-04T21:38:07.230Z,17.95
2018-09-04T21:40:35.713Z,17.86
2018-09-04T21:43:04.149Z,17.80
2018-09-04T21:45:32.636Z,17.81
2018-09-04T21:48:01.089Z,17.84
2018-09-04T21:50:29.577Z,17.82
2018-09-04T21:52:58.066Z,17.79
2018-09-04T21:55:26.555Z,17.80
2018-09-04T21:57:55.008Z,17.77
2018-09-04T22:00:26.685Z,17.74
2018-09-04T22:02:56.361Z,17.73
2018-09-04T22:05:25.790Z,17.66
2018-09-04T22:07:55.368Z,17.71
2018-09-04T22:10:24.284Z,17.58
2018-09-04T22:12:52.777Z,17.50
2018-09-04T22:15:21.338Z,17.50
2018-09-04T22:17:49.816Z,17.50
2018-09-04T22:20:18.321Z,17.44
2018-09-04T22:22:46.795Z,17.53
2018-09-04T22:25:15.274Z,17.58
2018-09-04T22:27:43.816Z,17.58
2018-09-04T22:30:12.353Z,17.69
2018-09-04T22:32:40.814Z,17.63
2018-09-04T22:35:09.304Z,17.72
2018-09-04T22:37:37.777Z,17.76
2018-09-04T22:40:06.869Z,17.73
2018-09-04T22:42:35.376Z,17.63
2018-09-04T22:45:03.902Z,17.69
2018-09-04T22:47:32.357Z,17.70
2018-09-04T22:50:06.226Z,17.58
2018-09-04T22:52:34.687Z,17.38
2018-09-04T22:55:05.188Z,17.23
2018-09-04T22:57:33.663Z,17.32
2018-09-04T23:00:02.132Z,17.35
2018-09-04T23:02:30.585Z,17.33
2018-09-04T23:04:59.103Z,17.22
2018-09-04T23:07:27.594Z,17.23
2018-09-04T23:09:56.118Z,17.20
2018-09-04T23:12:24.570Z,17.17
2018-09-04T23:14:53.065Z,17.20
2018-09-04T23:17:21.566Z,17.17
2018-09-04T23:19:50.045Z,17.19
2018-09-04T23:22:18.506Z,17.08
2018-09-04T23:24:47.006Z,16.98
2018-09-04T23:27:15.473Z,16.93
2018-09-04T23:29:43.982Z,16.94
2018-09-04T23:32:12.437Z,17.05
2018-09-04T23:34:41.270Z,17.18
2018-09-04T23:37:09.729Z,17.12
2018-09-04T23:39:38.173Z,17.30
2018-09-04T23:42:06.677Z,17.37
2018-09-04T23:44:35.214Z,17.41
2018-09-04T23:47:03.749Z,17.34
2018-09-04T23:49:32.197Z,17.33
2018-09-04T23:52:00.693Z,17.46
2018-09-04T23:54:29.157Z,17.48
2018-09-04T23:56:57.665Z,17.49
2018-09-04T23:59:26.136Z,17.47
